Impacts METAR Board
IDs:

KPDX - Portland Intl Arpt, OR, US

Updated at: 2000 UTC 22 Apr 2018
Potential Impact None Slight Moderate High
Time 22/08Z 22/09Z 22/10Z 22/11Z 22/12Z 22/13Z 22/14Z 22/15Z 22/16Z 22/17Z 22/18Z 22/19Z 22/20Z
Temp47 46 45 44 43 43 43 44 47 49 52 56 58
Dewpt38 39 38 37 37 37 38 39 39 39 39 39 38
Altim30.38 30.38 30.38 30.38 30.38 30.37 30.37 30.38 30.38 30.36 30.35 30.34 30.32
VIS10 10 10 10 10 10 10 10 10 10 10 10 10
CIG-- -- -- -- -- -- 200 -- -- -- -- -- --
CoverCLRCLRCLRCLRCLRSCTBKNSCTSCTFEWFEWFEWFEW
FltCatVFRVFRVFRVFRVFRVFRVFRVFRVFRVFRVFRVFRVFR
WX--------------------------
WDir310320320310000036000280280
WSpd8 10 5 4 0 0 0 0 3 0 0 7 6
WGst-- -- -- -- -- -- -- -- -- -- -- -- --
Raw hourly METARs
KPDX 220753Z 31008KT 10SM CLR 08/03 A3038 RMK AO2 SLP287 T00830033 401720083
KPDX 220853Z 32010KT 10SM CLR 08/04 A3038 RMK AO2 SLP286 T00780039 58003
KPDX 220953Z 32005KT 10SM CLR 07/03 A3038 RMK AO2 SLP285 T00720033
KPDX 221053Z 31004KT 10SM CLR 07/03 A3038 RMK AO2 SLP286 T00670028
KPDX 221153Z 00000KT 10SM CLR 06/03 A3038 RMK AO2 SLP286 T00610028 10094 20061 53001
KPDX 221253Z 00000KT 10SM SCT150 06/03 A3037 RMK AO2 SLP284 T00610028
KPDX 221353Z 00000KT 10SM FEW130 SCT150 BKN200 06/03 A3037 RMK AO2 SLP284 T00610033
KPDX 221453Z 00000KT 10SM FEW130 SCT200 07/04 A3038 RMK AO2 SLP287 T00670039 53000
KPDX 221553Z 36003KT 10SM FEW015 FEW050 SCT200 08/04 A3038 RMK AO2 SLP286 T00830039
KPDX 221653Z 00000KT 10SM FEW020 FEW200 09/04 A3036 RMK AO2 SLP281 T00940039
KPDX 221753Z 00000KT 10SM FEW020 FEW200 11/04 A3035 RMK AO2 SLP278 T01110039 10111 20056 58008
KPDX 221853Z 28007KT 10SM FEW030 13/04 A3034 RMK AO2 SLP274 T01330039
KPDX 221953Z 28006KT 10SM FEW035 14/03 A3032 RMK AO2 SLP266 T01440033



Page loaded:  20:18 UTC  |   01:18 PM Pacific  |   02:18 PM Mountain  |   03:18 PM Central  |   04:18 PM Eastern

 

ADVISORIES

FORECASTS

FORECASTS

OBSERVATIONS

USER TOOLS

ABOUT US